Time;durP1;ratioP1;P1;durP2;ratioP2;P2;SDS_P1;SDS_P2;PMS_P1;PMS_P2;Temp;Humidity;BMP_temperature;BMP_pressure;BME280_temperature;BME280_humidity;BME280_pressure;Samples;Min_cycle;Max_cycle;Signal;HPM_P1;HPM_P2
2021/07/12 00:00:46;;;;;;;11.43;9.70;;;;;;;;;;5015344;28;20472;-66
2021/07/12 00:03:12;;;;;;;13.25;9.48;;;;;;;;;;5015341;28;20463;-66
2021/07/12 00:05:40;;;;;;;11.52;9.70;;;;;;;;;;5014953;28;20048;-65
2021/07/12 00:08:07;;;;;;;11.82;9.63;;;;;;;;;;5015215;28;20480;-66
2021/07/12 00:10:33;;;;;;;11.63;9.48;;;;;;;;;;5015080;28;20068;-69
2021/07/12 00:12:59;;;;;;;10.63;9.57;;;;;;;;;;5015124;28;20100;-68
2021/07/12 00:15:26;;;;;;;14.30;9.48;;;;;;;;;;5014971;28;20396;-67
2021/07/12 00:17:52;;;;;;;9.45;8.43;;;;;;;;;;5014965;28;20018;-66
2021/07/12 00:20:19;;;;;;;13.15;9.13;;;;;;;;;;5014642;28;20057;-66
2021/07/12 00:22:46;;;;;;;11.23;9.48;;;;;;;;;;5014981;28;20101;-67
2021/07/12 00:25:13;;;;;;;12.27;10.85;;;;;;;;;;5014903;28;20022;-67
2021/07/12 00:27:39;;;;;;;11.55;10.30;;;;;;;;;;5013777;28;20018;-67
2021/07/12 00:30:08;;;;;;;11.45;10.35;;;;;;;;;;5014865;28;20030;-66
2021/07/12 00:32:34;;;;;;;11.23;10.02;;;;;;;;;;5014872;28;20092;-65
2021/07/12 00:35:00;;;;;;;12.38;10.15;;;;;;;;;;5014526;28;20442;-66
2021/07/12 00:37:26;;;;;;;13.48;11.13;;;;;;;;;;5014635;28;20025;-65
2021/07/12 00:39:52;;;;;;;11.35;10.18;;;;;;;;;;5014524;28;20101;-67
2021/07/12 00:42:19;;;;;;;12.38;9.70;;;;;;;;;;5014574;28;20033;-67
2021/07/12 00:44:45;;;;;;;12.18;10.88;;;;;;;;;;5014393;28;20041;-67
2021/07/12 00:47:11;;;;;;;14.95;10.30;;;;;;;;;;5014529;28;20017;-66
2021/07/12 00:49:37;;;;;;;9.43;8.52;;;;;;;;;;5014338;28;20034;-66
2021/07/12 00:52:04;;;;;;;9.85;8.88;;;;;;;;;;5014264;28;20034;-67
2021/07/12 00:54:30;;;;;;;11.75;9.00;;;;;;;;;;5012985;28;20396;-67
2021/07/12 00:56:58;;;;;;;13.35;8.50;;;;;;;;;;5014260;28;20014;-67
2021/07/12 00:59:25;;;;;;;10.52;8.73;;;;;;;;;;5014236;28;20040;-67
2021/07/12 01:01:51;;;;;;;9.40;8.40;;;;;;;;;;5014082;28;20021;-67
2021/07/12 01:04:17;;;;;;;10.25;9.25;;;;;;;;;;5014175;28;20361;-67
2021/07/12 01:06:43;;;;;;;10.68;9.43;;;;;;;;;;5014073;28;20032;-67
2021/07/12 01:09:10;;;;;;;12.52;10.60;;;;;;;;;;5014091;28;20032;-68
2021/07/12 01:11:36;;;;;;;11.68;10.00;;;;;;;;;;5014094;28;20341;-68
2021/07/12 01:14:08;;;;;;;13.90;10.18;;;;;;;;;;5013859;28;20104;-68
2021/07/12 01:16:43;;;;;;;11.80;9.77;;;;;;;;;;5013933;28;20028;-68
2021/07/12 01:19:28;;;;;;;12.73;9.90;;;;;;;;;;5013668;28;20455;-68
2021/07/12 01:21:54;;;;;;;11.77;9.88;;;;;;;;;;5013817;28;20099;-68
2021/07/12 01:24:21;;;;;;;9.90;9.00;;;;;;;;;;5014000;28;20052;-68
2021/07/12 01:27:13;;;;;;;10.88;9.75;;;;;;;;;;5013764;28;20105;-67
2021/07/12 01:29:48;;;;;;;13.63;10.07;;;;;;;;;;5010455;28;20038;-68
2021/07/12 01:32:30;;;;;;;11.18;9.50;;;;;;;;;;5013769;28;20036;-68
2021/07/12 01:35:02;;;;;;;10.38;9.38;;;;;;;;;;5013630;28;20018;-68
2021/07/12 01:37:40;;;;;;;10.95;9.73;;;;;;;;;;5013702;28;20026;-65
2021/07/12 01:40:11;;;;;;;12.45;10.50;;;615.00;1894.40;;;;;;5013313;28;20038;-66
2021/07/12 01:42:49;;;;;;;10.85;9.82;;;;;;;;;;5013666;28;20085;-66
2021/07/12 01:45:16;;;;;;;11.35;9.57;;;;;;;;;;5013307;28;20108;-66
2021/07/12 01:47:51;;;;;;;11.43;9.68;;;;;;;;;;5013507;28;20040;-66
2021/07/12 01:50:20;;;;;;;10.85;9.85;;;;;;;;;;5013158;28;20029;-66
2021/07/12 01:52:59;;;;;;;10.75;9.65;;;;;;;;;;5013246;28;20432;-67
2021/07/12 01:55:44;;;;;;;11.20;10.00;;;;;;;;;;5013264;28;20022;-66
2021/07/12 01:58:13;;;;;;;10.88;9.77;;;;;;;;;;5013278;28;20468;-66
2021/07/12 02:00:41;;;;;;;12.27;9.05;;;;;;;;;;5013289;28;20033;-66
2021/07/12 02:03:09;;;;;;;11.45;9.70;;;;;;;;;;5013181;28;20053;-67
2021/07/12 02:05:37;;;;;;;9.98;9.07;;;;;;;;;;5018013;28;20388;-65
2021/07/12 02:08:03;;;;;;;10.68;9.38;;;;;;;;;;5026335;28;20027;-66
2021/07/12 02:10:30;;;;;;;11.38;9.52;;;;;;;;;;5024042;28;20522;-66
2021/07/12 02:12:57;;;;;;;10.07;8.95;;;;;;;;;;5013012;28;20084;-66
2021/07/12 02:15:24;;;;;;;10.70;9.48;;;;;;;;;;5013511;28;20447;-67
2021/07/12 02:17:51;;;;;;;15.20;9.70;;;;;;;;;;5012843;28;20036;-66
2021/07/12 02:20:19;;;;;;;11.45;9.80;;;;;;;;;;5012746;28;20500;-66
2021/07/12 02:22:46;;;;;;;10.23;9.13;;;;;;;;;;5012726;28;20045;-66
2021/07/12 02:25:13;;;;;;;11.07;9.63;;;;;;;;;;5012909;28;20037;-66
2021/07/12 02:27:42;;;;;;;15.75;9.70;;;614.60;1996.80;;;;;;5012605;28;20080;-67
2021/07/12 02:30:09;;;;;;;11.10;9.60;;;614.60;1996.80;;;;;;5012873;28;20104;-66
2021/07/12 02:32:38;;;;;;;10.52;9.43;;;614.60;2099.20;;;;;;5012792;28;20112;-66
2021/07/12 02:35:09;;;;;;;10.55;9.27;;;614.40;1996.80;;;;;;5012636;28;20026;-66
2021/07/12 02:37:39;;;;;;;11.32;8.80;;;;;;;;;;5012565;28;20396;-66
2021/07/12 02:40:10;;;;;;;11.40;9.77;;;;;;;;;;5012535;28;20041;-66
2021/07/12 02:42:36;;;;;;;12.60;9.45;;;;;;;;;;5012726;28;20408;-66
2021/07/12 02:45:04;;;;;;;12.15;10.00;;;;;;;;;;5012451;28;20033;-67
2021/07/12 02:47:30;;;;;;;10.43;9.27;;;;;;;;;;5012629;28;20119;-67
2021/07/12 02:49:56;;;;;;;10.32;9.35;;;;;;;;;;5012436;28;20488;-67
2021/07/12 02:52:23;;;;;;;10.43;9.32;;;;;;;;;;5015511;28;20034;-66
2021/07/12 02:54:53;;;;;;;11.57;9.50;;;;;;;;;;5016688;28;20488;-66
2021/07/12 02:57:19;;;;;;;10.43;9.43;;;;;;;;;;5016572;28;20025;-66
2021/07/12 02:59:45;;;;;;;10.70;9.60;;;;;;;;;;5016349;28;20042;-65
2021/07/12 03:02:11;;;;;;;11.15;9.18;;;;;;;;;;5016512;28;20044;-67
2021/07/12 03:04:37;;;;;;;12.35;10.18;;;;;;;;;;5016547;28;20034;-65
2021/07/12 03:07:08;;;;;;;13.25;11.70;;;;;;;;;;5016349;28;20025;-65
2021/07/12 03:09:36;;;;;;;10.70;9.63;;;;;;;;;;5016409;28;20137;-66
2021/07/12 03:12:04;;;;;;;12.70;10.23;;;;;;;;;;5016271;28;20053;-66
2021/07/12 03:14:30;;;;;;;9.75;8.80;;;;;;;;;;5016220;28;20057;-66
2021/07/12 03:16:57;;;;;;;10.88;9.77;;;;;;;;;;5016324;28;20026;-65
2021/07/12 03:19:28;;;;;;;12.95;9.50;;;;;;;;;;5015911;28;20509;-66
2021/07/12 03:21:55;;;;;;;13.02;10.10;;;;;;;;;;5016244;28;20489;-65
2021/07/12 03:24:22;;;;;;;10.90;9.70;;;;;;;;;;5015921;28;20077;-66
2021/07/12 03:26:52;;;;;;;13.00;10.27;;;;;;;;;;5016069;28;20477;-66
2021/07/12 03:29:19;;;;;;;12.52;10.15;;;;;;;;;;5016224;28;20097;-65
2021/07/12 03:31:45;;;;;;;15.98;10.18;;;;;;;;;;5015838;28;20022;-68
2021/07/12 03:34:12;;;;;;;11.15;9.93;;;;;;;;;;5015986;28;20096;-67
2021/07/12 03:36:38;;;;;;;11.48;9.77;;;;;;;;;;5015834;28;20025;-67
2021/07/12 03:39:05;;;;;;;12.13;10.30;;;;;;;;;;5015682;28;20041;-67
2021/07/12 03:41:31;;;;;;;19.60;10.82;;;;;;;;;;5015586;28;20488;-67
2021/07/12 03:44:01;;;;;;;11.25;9.50;;;;;;;;;;5015609;28;20034;-67
2021/07/12 03:46:27;;;;;;;11.20;10.00;;;;;;;;;;5015585;28;20099;-66
2021/07/12 03:48:53;;;;;;;12.02;9.70;;;;;;;;;;5015521;28;20477;-66
2021/07/12 03:51:24;;;;;;;11.50;9.82;;;614.80;1920.00;;;;;;5015559;28;20030;-66
2021/07/12 03:53:50;;;;;;;16.35;11.30;;;614.80;1920.00;;;;;;5015260;28;20018;-67
2021/07/12 03:56:16;;;;;;;12.52;9.82;;;614.90;1894.40;;;;;;5015479;28;20032;-67
2021/07/12 03:58:43;;;;;;;12.45;9.98;;;614.80;1920.00;;;;;;5015093;28;20491;-68
2021/07/12 04:01:09;;;;;;;15.07;11.65;;;614.90;1920.00;;;;;;5015389;28;20100;-67
2021/07/12 04:03:35;;;;;;;12.23;10.52;;;;;;;;;;5014090;28;20373;-67
2021/07/12 04:06:03;;;;;;;18.25;10.43;;;;;;;;;;5015377;28;20106;-67
2021/07/12 04:08:29;;;;;;;15.25;10.38;;;;;;;;;;5015111;28;20091;-68
2021/07/12 04:10:55;;;;;;;12.00;10.70;;;;;;;;;;5015097;28;20021;-68
2021/07/12 04:13:21;;;;;;;12.75;10.60;;;;;;;;;;5014859;28;20026;-66
2021/07/12 04:15:47;;;;;;;12.82;10.25;;;615.20;1894.40;;;;;;5014938;28;20032;-70
2021/07/12 04:18:13;;;;;;;15.10;10.98;;;615.20;1920.00;;;;;;5014969;28;20105;-69
2021/07/12 04:20:41;;;;;;;14.60;12.90;;;615.00;1920.00;;;;;;5014492;28;20052;-65
2021/07/12 04:23:09;;;;;;;11.55;10.48;;;614.90;1945.60;;;;;;5014881;28;20092;-66
2021/07/12 04:25:34;;;;;;;16.77;11.57;;;615.00;1920.00;;;;;;5014766;28;20026;-66
2021/07/12 04:28:00;;;;;;;11.80;10.60;;;615.00;1945.60;;;;;;5014523;28;20033;-66
2021/07/12 04:30:26;;;;;;;13.65;10.80;;;615.20;1920.00;;;;;;5015105;28;20366;-66
2021/07/12 04:32:52;;;;;;;13.93;11.30;;;615.20;1920.00;;;;;;5014706;28;20025;-65
2021/07/12 04:35:18;;;;;;;14.95;10.35;;;615.20;1920.00;;;;;;5014805;28;20030;-67
2021/07/12 04:37:44;;;;;;;13.88;11.77;;;615.00;1920.00;;;;;;5014593;28;20021;-67
2021/07/12 04:40:10;;;;;;;11.27;10.10;;;614.90;1945.60;;;;;;5014364;28;20406;-67
2021/07/12 04:42:36;;;;;;;12.77;10.65;;;615.00;1920.00;;;;;;5014495;28;20053;-67
2021/07/12 04:45:02;;;;;;;12.02;10.75;;;615.10;1894.40;;;;;;5014272;28;20419;-67
2021/07/12 04:47:29;;;;;;;18.23;10.40;;;;;;;;;;5014510;28;20041;-70
2021/07/12 04:49:55;;;;;;;14.02;10.30;;;;;;;;;;5014345;28;20113;-67
2021/07/12 04:52:21;;;;;;;14.23;10.73;;;;;;;;;;5014368;28;20037;-66
2021/07/12 04:54:47;;;;;;;12.88;9.55;;;;;;;;;;5014249;28;20380;-66
2021/07/12 04:57:13;;;;;;;12.13;9.20;;;;;;;;;;5014248;28;20030;-66
2021/07/12 04:59:40;;;;;;;12.32;9.30;;;;;;;;;;5014134;28;20560;-65
2021/07/12 05:02:06;;;;;;;12.48;10.20;;;;;;;;;;5014178;28;20472;-65
2021/07/12 05:04:33;;;;;;;13.10;9.60;;;;;;;;;;5014155;28;20380;-65
2021/07/12 05:06:59;;;;;;;11.48;10.25;;;;;;;;;;5014095;28;20097;-63
2021/07/12 05:09:26;;;;;;;11.43;9.65;;;;;;;;;;5014010;28;20037;-64
2021/07/12 05:11:52;;;;;;;12.13;10.10;;;;;;;;;;5013960;28;20025;-65
2021/07/12 05:14:19;;;;;;;14.20;9.20;;;;;;;;;;5013509;28;20032;-65
2021/07/12 05:16:45;;;;;;;12.48;9.20;;;;;;;;;;5013942;28;20101;-65
2021/07/12 05:19:14;;;;;;;10.48;9.38;;;;;;;;;;5013572;28;20105;-66
2021/07/12 05:21:40;;;;;;;11.50;9.82;;;;;;;;;;5013829;28;20034;-66
2021/07/12 05:24:06;;;;;;;11.68;9.75;;;;;;;;;;5013565;28;20064;-66
2021/07/12 05:26:32;;;;;;;13.02;10.00;;;;;;;;;;5013650;28;20021;-67
2021/07/12 05:28:59;;;;;;;11.57;9.95;;;;;;;;;;5013515;28;20034;-67
2021/07/12 05:31:25;;;;;;;20.77;13.00;;;;;;;;;;5013565;28;20511;-67
2021/07/12 05:33:51;;;;;;;11.13;9.40;;;665.60;1740.80;;;;;;5013672;28;20341;-67
2021/07/12 05:36:16;;;;;;;15.02;9.57;;;665.60;1715.20;;;;;;5013391;28;20500;-67
2021/07/12 05:38:42;;;;;;;10.10;8.63;;;665.60;1740.80;;;;;;5013423;28;20034;-67
2021/07/12 05:41:08;;;;;;;9.90;8.77;;;640.80;1740.80;;;;;;5013523;28;20096;-67
2021/07/12 05:43:34;;;;;;;10.73;9.23;;;640.90;1740.80;;;;;;5013212;28;20383;-68
2021/07/12 05:46:00;;;;;;;12.10;9.98;;;665.60;1740.80;;;;;;5013504;28;20022;-66
2021/07/12 05:48:26;;;;;;;13.30;9.50;;;665.70;1766.40;;;;;;5013227;28;20030;-67
2021/07/12 05:50:52;;;;;;;10.85;9.60;;;;;;;;;;5013242;28;20024;-67
2021/07/12 05:53:19;;;;;;;11.07;9.60;;;;;;;;;;5012906;28;20034;-67
2021/07/12 05:55:45;;;;;;;10.48;9.48;;;;;;;;;;5013381;28;20234;-66
2021/07/12 05:58:11;;;;;;;11.27;9.90;;;640.90;1740.80;;;;;;5013263;28;20022;-67
2021/07/12 06:00:37;;;;;;;12.00;9.85;;;640.80;1740.80;;;;;;5012999;28;20022;-67
2021/07/12 06:03:03;;;;;;;11.15;9.55;;;665.60;1766.40;;;;;;5013146;28;20026;-67
2021/07/12 06:05:30;;;;;;;12.80;10.52;;;;;;;;;;5013256;28;20033;-67
2021/07/12 06:07:56;;;;;;;16.92;10.55;;;;;;;;;;5013100;28;20022;-66
2021/07/12 06:10:22;;;;;;;13.75;9.98;;;;;;;;;;5012785;28;20026;-67
2021/07/12 06:12:48;;;;;;;12.88;9.90;;;;;;;;;;5013040;28;20049;-67
2021/07/12 06:15:14;;;;;;;13.85;10.43;;;;;;;;;;5012729;28;20025;-67
2021/07/12 06:17:41;;;;;;;11.52;10.00;;;;;;;;;;5013048;28;20428;-65
2021/07/12 06:20:08;;;;;;;11.82;9.70;;;;;;;;;;5012603;28;20088;-65
2021/07/12 06:22:34;;;;;;;13.02;10.10;;;;;;;;;;5012692;28;20475;-64
2021/07/12 06:25:01;;;;;;;12.48;10.43;;;;;;;;;;5012484;28;20033;-67
2021/07/12 06:27:27;;;;;;;15.60;10.18;;;;;;;;;;5011925;28;20024;-66
2021/07/12 06:29:53;;;;;;;11.35;10.25;;;;;;;;;;5012410;28;20036;-66
2021/07/12 06:32:19;;;;;;;13.77;9.85;;;;;;;;;;5012655;28;20424;-66
2021/07/12 06:34:45;;;;;;;10.73;9.73;;;;;;;;;;5012336;28;20034;-67
2021/07/12 06:37:11;;;;;;;13.32;10.70;;;666.50;1689.60;;;;;;5012302;28;20033;-67
2021/07/12 06:39:37;;;;;;;11.70;10.55;;;691.20;1689.60;;;;;;5012221;28;20400;-66
2021/07/12 06:42:04;;;;;;;11.90;10.57;;;;;;;;;;5012327;28;20456;-65
2021/07/12 06:44:30;;;;;;;11.80;10.38;;;;;;;;;;4988195;28;20392;-66
2021/07/12 06:46:56;;;;;;;15.30;11.18;;;;;;;;;;5011492;28;20026;-66
2021/07/12 06:49:22;;;;;;;13.25;10.90;;;691.60;1638.40;;;;;;5012185;28;20026;-66
2021/07/12 06:51:49;;;;;;;15.30;11.00;;;691.60;1638.40;;;;;;5012249;28;20109;-66
2021/07/12 06:54:16;;;;;;;14.30;11.40;;;691.70;1612.80;;;;;;5012181;28;20021;-66
2021/07/12 06:56:42;;;;;;;11.68;10.07;;;;;;;;;;5012261;28;20027;-65
2021/07/12 06:59:08;;;;;;;12.45;11.15;;;;;;;;;;5012157;28;20045;-66
2021/07/12 07:01:34;;;;;;;14.05;12.57;;;;;;;;;;5012178;28;20097;-66
2021/07/12 07:04:00;;;;;;;11.68;10.30;;;;;;;;;;5012113;28;20026;-66
2021/07/12 07:06:26;;;;;;;14.32;12.40;;;;;;;;;;5012408;28;20066;-66
2021/07/12 07:08:52;;;;;;;13.85;11.68;;;716.80;1612.80;;;;;;5012135;28;20026;-66
2021/07/12 07:11:17;;;;;;;13.23;11.15;;;716.80;1612.80;;;;;;5012314;28;20048;-66
2021/07/12 07:13:43;;;;;;;12.73;10.73;;;716.90;1612.80;;;;;;5012213;28;20037;-65
2021/07/12 07:16:09;;;;;;;12.40;11.20;;;716.90;1587.20;;;;;;5011961;28;20021;-66
2021/07/12 07:18:35;;;;;;;12.93;10.93;;;717.00;1587.20;;;;;;5012165;28;20112;-67
2021/07/12 07:21:01;;;;;;;14.38;11.35;;;;;;;;;;5011641;28;20065;-68
2021/07/12 07:23:27;;;;;;;13.52;11.63;;;;;;;;;;5012151;28;20033;-66
2021/07/12 07:25:54;;;;;;;14.43;12.07;;;;;;;;;;5011733;28;20022;-65
2021/07/12 07:28:20;;;;;;;12.32;10.40;;;;;;;;;;5011902;28;20504;-68
2021/07/12 07:30:46;;;;;;;12.13;10.70;;;;;;;;;;5011795;28;20033;-69
2021/07/12 07:33:12;;;;;;;13.60;10.43;;;;;;;;;;5012097;28;20022;-66
2021/07/12 07:35:38;;;;;;;12.82;11.50;;;;;;;;;;5012095;28;20059;-67
2021/07/12 07:38:05;;;;;;;11.98;10.88;;;;;;;;;;5013997;28;20037;-67
2021/07/12 07:40:31;;;;;;;11.27;10.18;;;;;;;;;;5015091;28;20084;-66
2021/07/12 07:42:57;;;;;;;14.30;10.48;;;;;;;;;;5015309;28;20033;-67
2021/07/12 07:45:23;;;;;;;11.82;10.63;;;;;;;;;;5015042;28;20109;-64
2021/07/12 07:47:49;;;;;;;14.15;10.98;;;;;;;;;;5015561;28;20033;-65
2021/07/12 07:50:16;;;;;;;14.50;11.10;;;;;;;;;;5015024;28;20104;-67
2021/07/12 07:52:42;;;;;;;12.95;11.75;;;742.40;1561.60;;;;;;5014856;28;20037;-67
2021/07/12 07:55:09;;;;;;;14.05;12.13;;;742.40;1536.00;;;;;;5014777;28;20022;-66
2021/07/12 07:57:42;;;;;;;12.13;10.88;;;742.40;1536.00;;;;;;5015241;28;20057;-67
2021/07/12 08:00:12;;;;;;;12.07;10.70;;;;;;;;;;5014871;28;20121;-66
2021/07/12 08:02:39;;;;;;;12.55;11.05;;;;;;;;;;5012756;28;20026;-68
2021/07/12 08:05:06;;;;;;;12.90;10.77;;;;;;;;;;5014677;28;20038;-69
2021/07/12 08:07:33;;;;;;;16.25;11.75;;;;;;;;;;5014593;28;20109;-67
2021/07/12 08:09:59;;;;;;;14.30;11.02;;;;;;;;;;5014589;28;20033;-67
2021/07/12 08:12:25;;;;;;;11.45;10.25;;;;;;;;;;5013217;28;20026;-66
2021/07/12 08:14:51;;;;;;;13.63;11.88;;;743.00;1459.20;;;;;;5014251;28;20030;-67
2021/07/12 08:17:17;;;;;;;13.60;11.43;;;743.00;1459.20;;;;;;5014411;28;20068;-66
2021/07/12 08:19:43;;;;;;;14.10;11.80;;;742.90;1459.20;;;;;;5014098;28;20140;-64
2021/07/12 08:22:08;;;;;;;15.98;11.95;;;743.00;1459.20;;;;;;5014432;28;20026;-67
2021/07/12 08:24:35;;;;;;;13.20;11.27;;;;;;;;;;5014377;28;20113;-67
2021/07/12 08:27:02;;;;;;;18.55;11.00;;;;;;;;;;5014753;28;20388;-67
2021/07/12 08:29:29;;;;;;;14.10;10.93;;;;;;;;;;5014442;28;20365;-67
2021/07/12 08:31:55;;;;;;;12.57;11.27;;;;;;;;;;5014715;28;20030;-67
2021/07/12 08:34:21;;;;;;;13.77;10.90;;;;;;;;;;5014697;28;20026;-67
2021/07/12 08:36:47;;;;;;;11.68;9.60;;;;;;;;;;5014527;28;20033;-67
2021/07/12 08:39:13;;;;;;;12.00;10.85;;;;;;;;;;5014903;28;20117;-67
2021/07/12 08:41:39;;;;;;;14.07;11.77;;;;;;;;;;5014710;28;20017;-67
2021/07/12 08:44:06;;;;;;;12.50;11.00;;;;;;;;;;5014360;28;20492;-66
2021/07/12 08:46:32;;;;;;;12.50;10.05;;;;;;;;;;5014216;28;20381;-67
2021/07/12 08:48:58;;;;;;;12.93;11.20;;;;;;;;;;5013856;28;20381;-67
2021/07/12 08:51:25;;;;;;;12.35;10.38;;;;;;;;;;5014239;28;20030;-66
2021/07/12 08:53:51;;;;;;;14.75;11.70;;;;;;;;;;5014214;28;20077;-68
2021/07/12 08:56:17;;;;;;;12.85;10.48;;;;;;;;;;5014154;28;20062;-67
2021/07/12 08:58:43;;;;;;;15.05;11.07;;;;;;;;;;5013882;28;20080;-68
2021/07/12 09:01:09;;;;;;;11.23;10.13;;;;;;;;;;5013928;28;20109;-66
2021/07/12 09:03:50;;;;;;;12.38;11.15;;;;;;;;;;5013967;28;20033;-67
2021/07/12 09:06:16;;;;;;;;;;;;;;;;;;5014623;28;20475;-67
2021/07/12 09:08:56;;;;;;;14.90;11.23;;;;;;;;;;5013820;28;19917;-66
2021/07/12 09:11:26;;;;;;;13.35;11.38;;;;;;;;;;5013914;28;20499;-67
2021/07/12 09:13:52;;;;;;;13.32;11.77;;;;;;;;;;5013691;28;20113;-67
2021/07/12 09:16:37;;;;;;;15.50;11.02;;;;;;;;;;5014296;28;20030;-67
2021/07/12 09:19:12;;;;;;;14.90;11.85;;;;;;;;;;5013830;28;20073;-67
2021/07/12 09:21:45;;;;;;;13.50;11.25;;;;;;;;;;5013602;28;20045;-67
2021/07/12 09:24:16;;;;;;;13.02;11.82;;;;;;;;;;5014102;28;20048;-66
2021/07/12 09:26:42;;;;;;;12.88;11.60;;;;;;;;;;5013624;28;20025;-67
2021/07/12 09:29:29;;;;;;;13.70;12.00;;;;;;;;;;5013749;28;20029;-66
2021/07/12 09:31:55;;;;;;;15.60;11.48;;;;;;;;;;5013694;28;20076;-67
2021/07/12 09:34:23;;;;;;;13.15;11.93;;;;;;;;;;5013580;28;20076;-66
2021/07/12 09:36:49;;;;;;;13.80;11.98;;;794.20;1254.40;;;;;;5013348;28;20018;-67
2021/07/12 09:39:36;;;;;;;13.70;11.48;;;794.20;1228.80;;;;;;5013415;28;20449;-67
2021/07/12 09:42:13;;;;;;;18.30;13.38;;;794.10;1254.40;;;;;;5000633;28;20479;-75
2021/07/12 09:44:42;;;;;;;15.00;12.05;;;794.40;1254.40;;;;;;5013380;28;20022;-76
2021/07/12 09:47:19;;;;;;;15.23;12.70;;;794.50;1254.40;;;;;;5018515;28;20026;-74
2021/07/12 09:49:45;;;;;;;12.68;11.23;;;819.60;1203.20;;;;;;5030294;28;20033;-74
2021/07/12 09:52:14;;;;;;;14.25;12.82;;;819.60;1228.80;;;;;;5021094;28;20037;-74
2021/07/12 09:54:42;;;;;;;17.10;13.93;;;819.70;1203.20;;;;;;5012966;28;20464;-75
2021/07/12 09:57:30;;;;;;;13.20;11.88;;;819.80;1203.20;;;;;;5012931;28;20034;-76
2021/07/12 10:00:03;;;;;;;11.27;10.27;;;820.00;1177.60;;;;;;5012403;28;20033;-75
2021/07/12 10:02:31;;;;;;;11.57;10.38;;;844.90;1203.20;;;;;;5011945;28;20523;-76
2021/07/12 10:05:05;;;;;;;13.10;11.38;;;844.80;1203.20;;;;;;5009954;28;20029;-74
2021/07/12 10:07:32;;;;;;;13.52;12.10;;;844.90;1177.60;;;;;;5011759;28;20029;-75
2021/07/12 10:09:59;;;;;;;16.75;13.55;;;845.10;1152.00;;;;;;5010615;28;20522;-76
2021/07/12 10:12:26;;;;;;;15.85;12.50;;;845.20;1152.00;;;;;;4994594;28;20042;-75
2021/07/12 10:14:52;;;;;;;16.52;13.75;;;845.40;1152.00;;;;;;5012716;28;20156;-75
2021/07/12 10:17:20;;;;;;;13.48;11.63;;;845.40;1126.40;;;;;;5012826;28;20018;-75
2021/07/12 10:19:45;;;;;;;13.60;12.25;;;845.40;1126.40;;;;;;5012195;28;20393;-76
2021/07/12 10:22:13;;;;;;;13.88;12.40;;;845.60;1100.80;;;;;;5012587;28;20037;-76
2021/07/12 10:24:42;;;;;;;20.50;17.75;;;845.70;1100.80;;;;;;5012566;28;20109;-75
2021/07/12 10:27:28;;;;;;;22.23;19.58;;;870.50;1100.80;;;;;;5012378;28;20021;-75
2021/07/12 10:30:17;;;;;;;13.23;11.23;;;870.40;1126.40;;;;;;5012660;28;20116;-76
2021/07/12 10:32:52;;;;;;;12.73;11.48;;;870.40;1075.20;;;;;;5012670;28;20029;-76
2021/07/12 10:35:35;;;;;;;11.55;10.43;;;845.70;1075.20;;;;;;5012715;28;20084;-76
2021/07/12 10:38:01;;;;;;;19.20;15.80;;;845.70;1203.20;;;;;;5012566;28;20026;-76
2021/07/12 10:40:53;;;;;;;13.88;11.80;;;870.40;1100.80;;;;;;5012523;28;20038;-76
2021/07/12 10:43:47;;;;;;;14.70;11.93;;;870.40;1203.20;;;;;;5012461;28;20014;-76
2021/07/12 10:46:27;;;;;;;19.02;17.05;;;870.70;1049.60;;;;;;5012428;28;20029;-76
2021/07/12 10:49:12;;;;;;;13.80;12.30;;;870.90;1049.60;;;;;;4999799;28;20022;-75
2021/07/12 10:51:41;;;;;;;20.33;17.13;;;870.90;1049.60;;;;;;5012391;28;20026;-76
2021/07/12 10:54:12;;;;;;;14.60;13.10;;;871.00;1024.00;;;;;;5012585;28;20109;-74
2021/07/12 10:56:57;;;;;;;15.00;13.45;;;870.90;1049.60;;;;;;5012536;28;20030;-75
2021/07/12 10:59:31;;;;;;;13.90;12.25;;;871.10;1049.60;;;;;;5012232;28;20037;-74
2021/07/12 11:01:58;;;;;;;13.43;11.60;;;;;;;;;;5012370;28;20076;-75
2021/07/12 11:04:30;;;;;;;18.98;15.45;;;;;;;;;;5012426;28;20033;-76
2021/07/12 11:06:56;;;;;;;21.17;18.08;;;;;;;;;;5012227;28;20476;-76
2021/07/12 11:09:41;;;;;;;17.75;15.95;;;;;;;;;;5012809;28;20026;-76
2021/07/12 11:12:26;;;;;;;21.88;19.77;;;;;;;;;;5012970;28;20109;-76
2021/07/12 11:15:10;;;;;;;12.52;11.43;;;;;;;;;;5016217;28;20029;-76
2021/07/12 11:17:52;;;;;;;18.70;16.85;;;;;;;;;;5015846;28;20017;-75
2021/07/12 11:20:38;;;;;;;14.50;13.10;;;;;;;;;;5015299;28;20108;-76
2021/07/12 11:23:04;;;;;;;13.38;12.07;;;;;;;;;;5016212;28;20038;-74
2021/07/12 11:25:39;;;;;;;15.73;14.10;;;;;;;;;;5015602;28;20029;-75
2021/07/12 11:28:28;;;;;;;16.90;14.82;;;;;;;;;;5014739;28;20439;-75
2021/07/12 11:30:54;;;;;;;13.07;11.75;;;;;;;;;;5015159;28;20026;-75
2021/07/12 11:33:30;;;;;;;14.57;13.18;;;;;;;;;;5014330;28;20056;-74
2021/07/12 11:35:56;;;;;;;37.05;20.80;;;;;;;;;;5015373;28;20535;-74
2021/07/12 11:38:23;;;;;;;14.98;13.45;;;871.20;998.40;;;;;;5015011;28;20057;-75
2021/07/12 11:40:52;;;;;;;39.22;30.05;;;871.10;1024.00;;;;;;5014632;28;20065;-74
2021/07/12 11:43:30;;;;;;;78.82;62.28;;;870.90;1024.00;;;;;;5012961;28;20021;-74
2021/07/12 11:45:58;;;;;;;117.78;83.70;;;870.90;1024.00;;;;;;5014438;28;20045;-72
2021/07/12 11:48:24;;;;;;;122.70;93.88;;;871.10;1024.00;;;;;;5014912;28;20026;-74
2021/07/12 11:50:51;;;;;;;107.30;85.40;;;871.10;1024.00;;;;;;5014707;28;20029;-73
2021/07/12 11:53:17;;;;;;;32.70;25.48;;;871.30;1024.00;;;;;;5014660;28;20026;-75
2021/07/12 11:55:43;;;;;;;28.67;24.73;;;871.20;998.40;;;;;;5014879;28;20033;-75
2021/07/12 11:58:09;;;;;;;25.95;22.73;;;871.10;1024.00;;;;;;5014945;28;20038;-74
2021/07/12 12:00:43;;;;;;;24.40;20.80;;;871.00;1024.00;;;;;;5014518;28;20034;-74
2021/07/12 12:03:13;;;;;;;74.38;58.47;;;871.00;1024.00;;;;;;5014758;28;20369;-75
2021/07/12 12:05:44;;;;;;;73.63;56.47;;;870.90;1049.60;;;;;;5014406;28;20388;-74
2021/07/12 12:08:15;;;;;;;69.82;51.63;;;870.70;1049.60;;;;;;5014577;28;20484;-75
2021/07/12 12:10:41;;;;;;;148.57;119.88;;;870.70;1075.20;;;;;;5014370;28;20025;-74
2021/07/12 12:13:13;;;;;;;58.80;48.90;;;870.80;1024.00;;;;;;4996996;28;20388;-73
2021/07/12 12:15:41;;;;;;;63.50;50.65;;;870.90;1049.60;;;;;;5014629;28;20018;-74
2021/07/12 12:18:11;;;;;;;62.95;50.25;;;871.00;1024.00;;;;;;5014868;28;20515;-74
2021/07/12 12:20:47;;;;;;;57.90;47.75;;;871.00;1024.00;;;;;;5013968;28;20042;-73
2021/07/12 12:23:19;;;;;;;58.25;47.72;;;871.10;998.40;;;;;;5014228;28;20403;-74
2021/07/12 12:26:06;;;;;;;53.72;45.80;;;871.20;998.40;;;;;;5013665;28;20507;-74
2021/07/12 12:28:43;;;;;;;74.80;60.10;;;871.30;998.40;;;;;;5014139;28;20038;-74
2021/07/12 12:31:18;;;;;;;234.07;199.55;;;871.30;1024.00;;;;;;5014110;28;20034;-75
2021/07/12 12:33:54;;;;;;;363.67;320.15;;;896.00;1024.00;;;;;;5013770;28;20189;-74
2021/07/12 12:36:21;;;;;;;37.40;33.42;;;896.00;1024.00;;;;;;5012153;28;20022;-75
2021/07/12 12:38:51;;;;;;;53.58;43.25;;;896.00;1024.00;;;;;;5013674;28;20121;-73
2021/07/12 12:41:20;;;;;;;24.40;19.97;;;871.30;1024.00;;;;;;5013815;28;20105;-76
2021/07/12 12:44:15;;;;;;;27.27;21.38;;;896.00;1024.00;;;;;;5013269;28;20468;-74
2021/07/12 12:46:53;;;;;;;30.80;27.20;;;896.00;1024.00;;;;;;5013572;28;20037;-76
2021/07/12 12:49:21;;;;;;;22.67;20.20;;;896.00;1024.00;;;;;;5013592;28;20687;-74
2021/07/12 12:52:07;;;;;;;28.75;24.38;;;871.30;1024.00;;;;;;5011903;28;20060;-74
2021/07/12 12:54:40;;;;;;;21.00;16.90;;;871.10;1024.00;;;;;;5013345;28;20056;-75
2021/07/12 12:57:07;;;;;;;22.27;19.83;;;871.30;1024.00;;;;;;5013296;28;20029;-74
2021/07/12 12:59:38;;;;;;;26.05;23.38;;;871.30;1024.00;;;;;;5013348;28;20035;-74
2021/07/12 13:02:20;;;;;;;17.33;15.73;;;871.30;1024.00;;;;;;5013360;28;20032;-74
2021/07/12 13:04:50;;;;;;;15.23;13.85;;;871.30;1049.60;;;;;;5013280;28;20022;-74
2021/07/12 13:07:26;;;;;;;21.85;19.30;;;896.00;1024.00;;;;;;5013311;28;20026;-75
2021/07/12 13:10:06;;;;;;;24.30;21.88;;;896.00;1024.00;;;;;;5012996;28;20021;-76
2021/07/12 13:12:44;;;;;;;17.48;15.82;;;896.00;1024.00;;;;;;5013012;28;20030;-73
2021/07/12 13:15:11;;;;;;;25.15;22.58;;;896.00;1024.00;;;;;;5010721;28;20014;-74
2021/07/12 13:17:38;;;;;;;28.95;25.95;;;871.30;1024.00;;;;;;5013174;28;20097;-73
2021/07/12 13:20:13;;;;;;;16.55;14.82;;;871.30;1024.00;;;;;;5012983;28;20052;-73
2021/07/12 13:22:52;;;;;;;18.92;17.13;;;871.30;998.40;;;;;;5013612;28;20045;-76
2021/07/12 13:25:20;;;;;;;21.45;19.23;;;871.30;998.40;;;;;;5008375;28;20029;-74
2021/07/12 13:27:53;;;;;;;23.23;20.45;;;871.30;1024.00;;;;;;5012547;28;20014;-74
2021/07/12 13:30:21;;;;;;;20.10;17.33;;;871.30;1024.00;;;;;;5013353;28;20083;-74